Latest Coastal Weather Observations for Dum In Mirrie

IDD60701

Issued at 6:21 pm CST Monday 31 August 2015 (issued every 10 minutes, with the page automatically refreshed every 10 minutes)

About coastal observations | Map of coastal stations | Coastal observations for NT | Marine services | Other Formats
Station Details ID: 014277 Name: DUM IN MIRRIE AIRSTRIP Lat: -12.63 Lon: 130.37 Height: 3.5 m
Data from the previous 72 hours. | See also: Recent months at Dum In Mirrie
Date/Time
CST
Temp

°C
Wind Pressure Rain
since 9am
mm
Weather Cloud Vis
km
Sea
Height
m
Swell
Dir
 
Speed
knots
Gust
knots
hPa Trend Height
m
Period
s
Dir
31/06:00pm 28.0 W 5 11 1012.2 - 0.0 - - - - - - -
31/05:30pm 28.6 W 5 9 1012.2 - 0.0 - - - - - - -
31/05:00pm 28.9 W 7 13 1012.1 - 0.0 - - - - - - -
31/04:30pm 29.2 W 6 11 1012.0 - 0.0 - - - - - - -
31/04:00pm 29.5 W 7 11 1012.2 - 0.0 - - - - - - -
31/03:30pm 29.7 W 6 10 1012.5 - 0.0 - - - - - - -
31/03:00pm 30.1 W 6 10 1012.9 - 0.0 - - - - - - -
31/02:30pm 29.7 W 8 11 1013.3 - 0.0 - - - - - - -
31/02:00pm 29.6 W 7 11 1013.5 - 0.0 - - - - - - -
31/01:30pm 29.9 W 6 11 1013.8 - 0.0 - - - - - - -
31/01:00pm 29.7 W 6 10 1014.2 - 0.0 - - - - - - -
31/12:30pm 29.7 W 7 10 1014.6 - 0.0 - - - - - - -
31/12:00pm 29.7 W 6 9 1015.1 - 0.0 - - - - - - -
31/11:30am 29.6 W 6 9 1015.4 - 0.0 - - - - - - -
31/11:00am 28.6 WNW 6 9 1015.8 - 0.0 - - - - - - -
31/10:30am 28.4 WNW 4 6 1015.9 - 0.0 - - - - - - -
31/10:00am 28.4 WNW 3 6 1015.9 - 0.0 - - - - - - -
31/09:30am 28.1 N 3 5 1015.8 - 0.0 - - - - - - -
31/09:00am 26.1 NNE 3 4 1015.6 - 0.0 - - - - - - -
31/08:30am 25.5 NE 3 5 1015.7 - 0.0 - - - - - - -
31/08:00am 25.5 ENE 3 4 1015.2 - 0.0 - - - - - - -
31/07:30am 24.8 ESE 4 6 1014.8 - 0.0 - - - - - - -
31/07:00am 24.3 ESE 2 4 1014.5 - 0.0 - - - - - - -
31/06:30am 23.0 CALM 0 0 1014.1 - 0.0 - - - - - - -
31/06:00am 23.2 CALM 0 0 1013.8 - 0.0 - - - - - - -
31/05:30am 23.2 CALM 0 1 1013.5 - 0.0 - - - - - - -
31/05:00am 22.3 NNE 2 3 1013.1 - 0.0 - - - - - - -
31/04:30am 22.4 N 1 2 1013.1 - 0.0 - - - - - - -
31/04:00am 22.0 NNW 1 2 1013.2 - 0.0 - - - - - - -
31/03:30am 22.5 CALM 0 0 1013.3 - 0.0 - - - - - - -
31/03:00am 22.7 NNW 1 1 1013.5 - 0.0 - - - - - - -
31/02:30am 23.5 CALM 0 0 1013.7 - 0.0 - - - - - - -
31/02:00am 24.4 CALM 0 0 1014.1 - 0.0 - - - - - - -
31/01:30am 25.4 WSW 1 2 1014.2 - 0.0 - - - - - - -
31/01:00am 25.7 WSW 1 3 1014.5 - 0.0 - - - - - - -
31/12:30am 26.0 WSW 2 6 1014.8 - 0.0 - - - - - - -
31/12:00am 26.2 W 3 6 1015.1 - 0.0 - - - - - - -
 
Date/Time
CST
Temp

°C
Wind Pressure Rain
since 9am
mm
Weather Cloud Vis
km
Sea
Height
m
Swell
Dir
 
Speed
knots
Gust
knots
hPa Trend Height
m
Period
s
Dir
30/11:30pm 26.3 SW 2 3 1015.0 - 0.0 - - - - - - -
30/11:00pm 26.5 SW 4 7 1014.8 - 0.0 - - - - - - -
30/10:30pm 26.6 SW 6 10 1014.6 - 0.0 - - - - - - -
30/10:00pm 26.7 SW 6 10 1014.4 - 0.0 - - - - - - -
30/09:30pm 26.8 SW 4 8 1014.2 - 0.0 - - - - - - -
30/09:00pm 26.8 SW 4 6 1014.1 - 0.0 - - - - - - -
30/08:30pm 26.8 WSW 3 9 1013.9 - 0.0 - - - - - - -
30/08:00pm 26.9 WSW 3 8 1013.7 - 0.0 - - - - - - -
30/07:30pm 27.0 WSW 5 8 1013.3 - 0.0 - - - - - - -
30/07:00pm 27.0 W 4 7 1013.1 - 0.0 - - - - - - -
30/06:30pm 27.4 WNW 4 9 1012.9 - 0.0 - - - - - - -
30/06:00pm 27.9 WNW 5 8 1012.7 - 0.0 - - - - - - -
30/05:30pm 28.2 WNW 5 9 1012.6 - 0.0 - - - - - - -
30/05:00pm 28.7 W 6 9 1012.4 - 0.0 - - - - - - -
30/04:30pm 29.0 WNW 5 11 1012.3 - 0.0 - - - - - - -
30/04:00pm 29.0 WNW 6 10 1012.4 - 0.0 - - - - - - -
30/03:30pm 29.0 NW 7 10 1012.6 - 0.0 - - - - - - -
30/03:00pm 29.9 NW 6 10 1012.8 - 0.0 - - - - - - -
30/02:30pm 29.4 NW 6 11 1013.2 - 0.0 - - - - - - -
30/02:00pm 29.4 NW 5 11 1013.5 - 0.0 - - - - - - -
30/01:30pm 29.8 NW 6 10 1013.9 - 0.0 - - - - - - -
30/01:00pm 29.7 NNW 6 10 1014.2 - 0.0 - - - - - - -
30/12:30pm 29.0 NW 5 9 1014.5 - 0.0 - - - - - - -
30/12:00pm 27.9 WNW 3 5 1015.2 - 0.0 - - - - - - -
30/11:30am 27.6 W 3 6 1015.7 - 0.0 - - - - - - -
30/11:00am 27.4 W 3 5 1016.2 - 0.0 - - - - - - -
30/10:30am 27.8 W 3 5 1016.4 - 0.0 - - - - - - -
30/10:00am 29.2 SW 3 5 1016.4 - 0.0 - - - - - - -
30/09:30am 28.3 ESE 3 5 1016.3 - 0.0 - - - - - - -
30/09:00am 27.6 ESE 3 4 1016.2 - 0.0 - - - - - - -
30/08:30am 26.5 ESE 3 4 1016.0 - 0.0 - - - - - - -
30/08:00am 25.6 ESE 2 3 1015.5 - 0.0 - - - - - - -
30/07:30am 23.4 CALM 0 1 1015.1 - 0.0 - - - - - - -
30/07:00am 23.5 E 2 3 1014.8 - 0.0 - - - - - - -
30/06:30am 23.9 E 2 3 1014.3 - 0.0 - - - - - - -
30/06:00am 24.1 ESE 3 4 1014.2 - 0.0 - - - - - - -
30/05:30am 23.5 ESE 3 4 1013.9 - 0.0 - - - - - - -
30/05:00am 22.0 CALM 0 0 1013.5 - 0.0 - - - - - - -
30/04:30am 21.9 CALM 0 0 1013.3 - 0.0 - - - - - - -
30/04:00am 21.9 CALM 0 0 1013.2 - 0.0 - - - - - - -
30/03:30am 21.4 CALM 0 0 1013.4 - 0.0 - - - - - - -
30/03:00am 22.5 CALM 0 0 1013.7 - 0.0 - - - - - - -
30/02:30am 22.4 CALM 0 0 1013.9 - 0.0 - - - - - - -
30/02:00am 22.6 CALM 0 0 1014.3 - 0.0 - - - - - - -
30/01:30am 22.6 CALM 0 0 1014.6 - 0.0 - - - - - - -
30/01:00am 23.1 CALM 0 0 1014.9 - 0.0 - - - - - - -
30/12:30am 23.1 CALM 0 0 1015.0 - 0.0 - - - - - - -
30/12:00am 22.6 CALM 0 1 1015.0 - 0.0 - - - - - - -
 
Date/Time
CST
Temp

°C
Wind Pressure Rain
since 9am
mm
Weather Cloud Vis
km
Sea
Height
m
Swell
Dir
 
Speed
knots
Gust
knots
hPa Trend Height
m
Period
s
Dir
29/11:30pm 23.1 CALM 0 0 1015.0 - 0.0 - - - - - - -
29/11:00pm 23.1 W 1 1 1014.9 - 0.0 - - - - - - -
29/10:30pm 23.1 CALM 0 0 1015.0 - 0.0 - - - - - - -
29/10:00pm 23.4 CALM 0 0 1014.9 - 0.0 - - - - - - -
29/09:30pm 23.9 S 1 2 1014.7 - 0.0 - - - - - - -
29/09:00pm 24.0 CALM 0 1 1014.5 - 0.0 - - - - - - -
29/08:30pm 24.2 CALM 0 0 1014.1 - 0.0 - - - - - - -
29/08:00pm 25.1 CALM 0 0 1014.0 - 0.0 - - - - - - -
29/07:30pm 26.4 W 1 3 1013.6 - 0.0 - - - - - - -
29/07:00pm 26.6 WNW 2 3 1013.3 - 0.0 - - - - - - -
29/06:30pm 27.1 WNW 2 4 1013.0 - 0.0 - - - - - - -
29/06:00pm 28.0 W 4 6 1012.8 - 0.0 - - - - - - -
29/05:30pm 28.6 W 5 8 1012.7 - 0.0 - - - - - - -
29/05:00pm 28.9 W 5 9 1012.4 - 0.0 - - - - - - -
29/04:30pm 28.6 W 5 9 1012.4 - 0.0 - - - - - - -
29/04:00pm 29.6 W 5 9 1012.3 - 0.0 - - - - - - -
29/03:30pm 29.4 W 6 11 1012.5 - 0.0 - - - - - - -
29/03:00pm 29.5 W 6 11 1012.9 - 0.0 - - - - - - -
29/02:30pm 29.6 W 6 11 1013.4 - 0.0 - - - - - - -
29/02:00pm 29.8 W 6 11 1013.8 - 0.0 - - - - - - -
29/01:30pm 29.9 W 6 10 1014.4 - 0.0 - - - - - - -
29/01:00pm 29.3 W 7 11 1014.9 - 0.0 - - - - - - -
29/12:30pm 29.8 W 6 11 1015.3 - 0.0 - - - - - - -
29/12:00pm 29.4 W 5 8 1015.8 - 0.0 - - - - - - -
29/11:30am 28.7 W 4 6 1016.3 - 0.0 - - - - - - -
29/11:00am 28.6 W 5 7 1016.6 - 0.0 - - - - - - -
29/10:30am 29.3 SSW 2 4 1016.8 - 0.0 - - - - - - -
29/10:00am 28.6 SE 2 3 1016.8 - 0.0 - - - - - - -
29/09:30am 27.4 SE 2 4 1016.8 - 0.0 - - - - - - -
29/09:00am 26.3 SE 2 4 1016.4 - 0.0 - - - - - - -
29/08:30am 25.3 SSE 2 6 1016.2 - 0.0 - - - - - - -
29/08:00am 24.3 SSE 3 5 1016.3 - 0.0 - - - - - - -
29/07:30am 23.7 SE 3 7 1016.1 - 0.0 - - - - - - -
29/07:00am 23.4 SE 3 6 1015.7 - 0.0 - - - - - - -
29/06:30am 23.2 SE 2 3 1015.3 - 0.0 - - - - - - -
29/06:00am 23.0 SE 2 3 1014.9 - 0.0 - - - - - - -
29/05:30am 22.6 ESE 3 3 1014.4 - 0.0 - - - - - - -
29/05:00am 21.8 E 2 3 1014.0 - 0.0 - - - - - - -
29/04:30am 23.0 E 2 3 1013.9 - 0.0 - - - - - - -
29/04:00am 22.6 ESE 2 2 1014.0 - 0.0 - - - - - - -
29/03:30am 22.7 ESE 2 2 1013.8 - 0.0 - - - - - - -
29/03:00am 23.1 SE 1 2 1013.9 - 0.0 - - - - - - -
29/02:30am 23.3 SSE 1 3 1014.2 - 0.0 - - - - - - -
29/02:00am 23.2 SSE 2 3 1014.5 - 0.0 - - - - - - -
29/01:30am 23.2 CALM 0 1 1014.6 - 0.0 - - - - - - -
29/01:00am 23.9 SSE 2 2 1014.7 - 0.0 - - - - - - -
29/12:30am 24.2 SSE 1 2 1014.9 - 0.0 - - - - - - -
29/12:00am 24.0 SSE 2 3 1015.1 - 0.0 - - - - - - -
 
Date/Time
CST
Temp

°C
Wind Pressure Rain
since 9am
mm
Weather Cloud Vis
km
Sea
Height
m
Swell
Dir
 
Speed
knots
Gust
knots
hPa Trend Height
m
Period
s
Dir
28/11:30pm 23.8 SSE 1 2 1015.0 - 0.0 - - - - - - -
28/11:00pm 24.4 CALM 0 1 1015.0 - 0.0 - - - - - - -
28/10:30pm 24.9 SSE 1 2 1014.8 - 0.0 - - - - - - -
28/10:00pm 25.2 S 1 2 1014.6 - 0.0 - - - - - - -
28/09:30pm 25.0 SSE 1 2 1014.4 - 0.0 - - - - - - -
28/09:00pm 25.4 SSW 1 3 1014.2 - 0.0 - - - - - - -
28/08:30pm 25.3 SSW 2 3 1013.9 - 0.0 - - - - - - -
28/08:00pm 25.3 CALM 0 1 1013.6 - 0.0 - - - - - - -
28/07:30pm 25.7 CALM 0 2 1013.3 - 0.0 - - - - - - -
28/07:00pm 26.7 WSW 2 4 1012.9 - 0.0 - - - - - - -
28/06:30pm 27.1 SW 2 5 1012.7 - 0.0 - - - - - - -

Other Formats:

Comma delimited format used in spreadsheet applications
http://www.bom.gov.au/fwo/IDD60701/IDD60701.94116.axf

JavaScript Object Notation format (JSON) in row-major order
http://www.bom.gov.au/fwo/IDD60701/IDD60701.94116.json